ADDS METAR Data INFO
IDs: Format: Raw Decoded Include TAF

Data at: 2246 UTC 11 Dec 2017

K24A 112140Z AUTO 00000KT 10SM CLR 10/M03 A2997 RMK AO2 T00971034
K24A 112120Z AUTO 23003KT 10SM CLR 09/M03 A2997 RMK AO2 T00941035
K24A 112100Z AUTO 18003KT 10SM CLR 10/M03 A2996 RMK AO2 T01001032
K24A 112040Z AUTO 00000KT 10SM CLR 10/M03 A2998 RMK AO2 T00991035
K24A 112020Z AUTO 31003KT 10SM CLR 10/M04 A2999 RMK AO2 T00981036
K24A 112000Z AUTO 00000KT 10SM CLR 09/M05 A2999 RMK AO2 T00951049
K24A 111940Z AUTO 01003KT 10SM CLR 09/M05 A2999 RMK AO2 T00951045
K24A 111920Z AUTO 00000KT 10SM CLR 09/M04 A3000 RMK AO2 T00921043
K24A 111900Z AUTO 00000KT 10SM CLR 09/M05 A3000 RMK AO2 T00941048
K24A 111840Z AUTO 00000KT 10SM CLR 09/M04 A3001 RMK AO2 T00891042
K24A 111820Z AUTO 33003KT 10SM CLR 09/M04 A3002 RMK AO2 T00861037
K24A 111800Z AUTO 00000KT 10SM CLR 08/M03 A3002 RMK AO2 T00851034
K24A 111740Z AUTO 00000KT 10SM CLR 08/M03 A3003 RMK AO2 T00751034
K24A 111720Z AUTO 00000KT 10SM CLR 07/M04 A3005 RMK AO2 T00661037
K24A 111700Z AUTO 00000KT 10SM CLR 06/M04 A3006 RMK AO2 T00591039
K24A 111640Z AUTO 00000KT 10SM CLR 05/M04 A3008 RMK AO2 T00461040
K24A 111620Z AUTO 00000KT 10SM CLR 04/M04 A3011 RMK AO2 T00391042
K24A 111600Z AUTO 11003KT 10SM CLR 04/M04 A3011 RMK AO2 T00371042
K24A 111540Z AUTO 00000KT 10SM CLR 03/M05 A3012 RMK AO2 T00291047
K24A 111520Z AUTO 00000KT 10SM CLR 02/M05 A3012 RMK AO2 T00201047
K24A 111500Z AUTO 00000KT 10SM CLR 02/M05 A3012 RMK AO2 T00181048
K24A 111440Z AUTO 11003KT 10SM CLR 01/M05 A3012 RMK AO2 T00091050
K24A 111420Z AUTO 14003KT 10SM CLR 00/M05 A3012 RMK AO2 T00041051
K24A 111400Z AUTO 16003KT 10SM CLR M01/M06 A3013 RMK AO2 T10081057
K24A 111340Z AUTO 14003KT 10SM CLR M01/M06 A3013 RMK AO2 T10111057
K24A 111320Z AUTO 00000KT 10SM CLR M01/M06 A3013 RMK AO2 T10131058
K24A 111300Z AUTO 00000KT 10SM CLR M02/M06 A3013 RMK AO2 T10181060
K24A 111240Z AUTO 00000KT 10SM CLR M02/M06 A3013 RMK AO2 T10171062
K24A 111220Z AUTO 00000KT 10SM CLR M02/M06 A3013 RMK AO2 T10211063
K24A 111200Z AUTO 00000KT 10SM CLR M03/M06 A3013 RMK AO2 T10261064
K24A 111140Z AUTO 00000KT 10SM CLR M03/M06 A3013 RMK AO2 T10251065
K24A 111120Z AUTO 14005KT 10SM CLR M02/M07 A3012 RMK AO2 T10221066
K24A 111100Z AUTO 13005KT 10SM CLR M02/M07 A3012 RMK AO2 T10201065
K24A 111040Z AUTO 15005KT 10SM CLR M02/M06 A3012 RMK AO2 T10181062
K24A 111020Z AUTO 15003KT 10SM CLR M02/M06 A3012 RMK AO2 T10221064
K24A 111000Z AUTO 00000KT 10SM CLR M01/M07 A3011 RMK AO2 T10091068
K24A 110940Z AUTO 21003KT 10SM CLR M01/M07 A3011 RMK AO2 T10051066
K24A 110920Z AUTO 00000KT 10SM CLR M01/M07 A3011 RMK AO2 T10081068
K24A 110900Z AUTO 17003KT 10SM CLR M01/M07 A3010 RMK AO2 T10141069
K24A 110840Z AUTO 33003KT 10SM CLR 00/M07 A3011 RMK AO2 T10001067
K24A 110820Z AUTO 36003KT 10SM CLR M01/M07 A3011 RMK AO2 T10051068
K24A 110800Z AUTO 02004KT 10SM CLR M01/M07 A3012 RMK AO2 T10091069
K24A 110740Z AUTO 35004KT 10SM CLR M01/M07 A3012 RMK AO2 T10101071
K24A 110720Z AUTO 36004KT 10SM CLR M01/M07 A3012 RMK AO2 T10051071
K24A 110700Z AUTO 34006KT 10SM CLR 00/M07 A3012 RMK AO2 T00021072
K24A 110640Z AUTO 31006KT 10SM CLR 01/M07 A3012 RMK AO2 T00081071
K24A 110620Z AUTO 32006KT 10SM CLR 01/M07 A3012 RMK AO2 T00091072
K24A 110600Z AUTO 33006KT 10SM CLR 01/M07 A3013 RMK AO2 T00081074
K24A 110540Z AUTO 33007KT 10SM CLR 00/M08 A3013 RMK AO2 T00051075
K24A 110520Z AUTO 32008KT 10SM CLR 00/M08 A3014 RMK AO2 T10001077
K24A 110500Z AUTO 34006KT 10SM CLR 01/M08 A3013 RMK AO2 T00061081
K24A 110440Z AUTO 32008KT 10SM CLR 00/M08 A3013 RMK AO2 T00041082
K24A 110420Z AUTO 34007KT 10SM CLR 00/M08 A3014 RMK AO2 T10041084
K24A 110400Z AUTO 32009G14KT 280V350 10SM CLR 00/M09 A3013 RMK AO2 T10021091
K24A 110340Z AUTO 32008KT 10SM CLR M01/M09 A3013 RMK AO2 T10071091
K24A 110320Z AUTO 31009KT 10SM CLR M01/M09 A3013 RMK AO2 T10081090
K24A 110300Z AUTO 32009KT 10SM CLR 00/M10 A3013 RMK AO2 T10021099
K24A 110240Z AUTO 34004KT 10SM CLR M02/M09 A3012 RMK AO2 T10191089
K24A 110220Z AUTO 33004KT 10SM CLR M02/M09 A3012 RMK AO2 T10221091
K24A 110200Z AUTO 00000KT 10SM CLR M02/M09 A3012 RMK AO2 T10161094
K24A 110140Z AUTO 00000KT 10SM CLR M01/M10 A3012 RMK AO2 T10111099
K24A 110120Z AUTO 00000KT 10SM CLR 00/M11 A3012 RMK AO2 T10051106
K24A 110100Z AUTO 00000KT 10SM CLR 01/M11 A3011 RMK AO2 T00061109
K24A 110040Z AUTO 00000KT 10SM CLR 00/M11 A3011 RMK AO2 T00031107
K24A 110020Z AUTO 21003KT 10SM CLR M01/M10 A3012 RMK AO2 T10071101
K24A 110000Z AUTO 00000KT 10SM CLR M01/M11 A3012 RMK AO2 T10071114
K24A 102340Z AUTO 00000KT 10SM CLR 00/M11 A3010 RMK AO2 T00041114
K24A 102320Z AUTO 00000KT 10SM CLR 01/M11 A3010 RMK AO2 T00051110
K24A 102300Z AUTO 00000KT 10SM CLR 01/M12 A3011 RMK AO2 T00081118
K24A 102240Z AUTO 00000KT 10SM CLR 01/M13 A3011 RMK AO2 T00101126
K24A 102220Z AUTO 36003KT 10SM CLR 01/M13 A3011 RMK AO2 T00111129
K24A 102200Z AUTO 00000KT 10SM CLR 02/M13 A3011 RMK AO2 T00161134
K24A 102140Z AUTO 02003KT 10SM CLR 02/M14 A3011 RMK AO2 T00171140
K24A 102120Z AUTO 35003KT 10SM CLR 02/M13 A3011 RMK AO2 T00191135
K24A 102100Z AUTO 32003KT 10SM CLR 02/M12 A3011 RMK AO2 T00221120
K24A 102040Z AUTO 00000KT 10SM CLR 02/M11 A3010 RMK AO2 T00191107
K24A 102020Z AUTO 00000KT 10SM CLR 02/M11 A3011 RMK AO2 T00181111
K24A 102000Z AUTO 00000KT 10SM CLR 01/M10 A3010 RMK AO2 T00151098
K24A 101940Z AUTO 00000KT 10SM CLR 02/M10 A3010 RMK AO2 T00171095
K24A 101920Z AUTO 04003KT 10SM CLR 01/M09 A3010 RMK AO2 T00141091
K24A 101900Z AUTO 00000KT 10SM CLR 01/M09 A3010 RMK AO2 T00101088
K24A 101840Z AUTO 03003KT 10SM CLR 01/M09 A3011 RMK AO2 T00081089
K24A 101820Z AUTO 00000KT 10SM CLR 01/M09 A3011 RMK AO2 T00071086
K24A 101800Z AUTO 02003KT 10SM CLR 00/M09 A3012 RMK AO2 T00041087
K24A 101740Z AUTO 07003KT 10SM CLR 00/M08 A3012 RMK AO2 T10011083
K24A 101720Z AUTO 00000KT 10SM CLR M01/M08 A3013 RMK AO2 T10051084
K24A 101700Z AUTO 03003KT 10SM CLR M01/M09 A3013 RMK AO2 T10111088
K24A 101640Z AUTO 03003KT 10SM CLR M02/M08 A3014 RMK AO2 T10161083
K24A 101620Z AUTO 04003KT 10SM CLR M02/M08 A3015 RMK AO2 T10181081
K24A 101600Z AUTO 01003KT 10SM CLR M03/M09 A3016 RMK AO2 T10281088
K24A 101540Z AUTO 05003KT 10SM CLR M03/M09 A3016 RMK AO2 T10281089
K24A 101520Z AUTO 00000KT 10SM CLR M03/M09 A3016 RMK AO2 T10341093
K24A 101500Z AUTO 00000KT 10SM CLR M04/M10 A3016 RMK AO2 T10411095
K24A 101440Z AUTO 00000KT 10SM CLR M05/M10 A3016 RMK AO2 T10461095
K24A 101420Z AUTO 30003KT 10SM CLR M05/M09 A3016 RMK AO2 T10511094
K24A 101400Z AUTO 36004KT 10SM CLR M05/M09 A3016 RMK AO2 T10551093
K24A 101340Z AUTO 00000KT 10SM CLR M06/M09 A3015 RMK AO2 T10611092
K24A 101320Z AUTO 00000KT 10SM CLR M06/M10 A3015 RMK AO2 T10641095
K24A 101300Z AUTO 31005KT 10SM CLR M07/M10 A3014 RMK AO2 T10651096
K24A 101240Z AUTO 30003KT 10SM CLR M07/M10 A3013 RMK AO2 T10671098
K24A 101220Z AUTO 30004KT 10SM CLR M07/M10 A3012 RMK AO2 T10661099
K24A 101200Z AUTO 30005KT 10SM CLR M06/M10 A3012 RMK AO2 T10651101
K24A 101140Z AUTO 31006KT 10SM CLR M06/M10 A3011 RMK AO2 T10651099
K24A 101120Z AUTO 31006KT 10SM CLR M06/M10 A3010 RMK AO2 T10631102
K24A 101100Z AUTO 33004KT 10SM CLR M06/M10 A3009 RMK AO2 T10641102